Time;durP1;ratioP1;P1;durP2;ratioP2;P2;SDS_P1;SDS_P2;PMS_P1;PMS_P2;Temp;Humidity;BMP_temperature;BMP_pressure;BME280_temperature;BME280_humidity;BME280_pressure;Samples;Min_cycle;Max_cycle;Signal;HPM_P1;HPM_P2
2022/05/24 00:00:50;;;;;;;;;;;;;;;21.00;48.16;99906.69;7286496;19;151685;-63
2022/05/24 00:03:19;;;;;;;;;;;;;;;20.98;48.25;99906.22;7288159;19;152637;-62
2022/05/24 00:05:48;;;;;;;;;;;;;;;20.98;48.39;99909.03;7286832;19;155008;-63
2022/05/24 00:08:16;;;;;;;;;;;;;;;20.95;48.88;99912.47;7285286;19;151768;-63
2022/05/24 00:10:43;;;;;;;;;;;;;;;21.00;49.05;99905.84;7287432;19;152773;-60
2022/05/24 00:13:11;;;;;;;;;;;;;;;20.97;48.65;99906.53;7284112;19;152950;-65
2022/05/24 00:15:39;;;;;;;;;;;;;;;20.96;49.26;99907.69;7295194;19;151624;-62
2022/05/24 00:18:08;;;;;;;;;;;;;;;20.99;48.95;99904.19;7285090;19;154291;-61
2022/05/24 00:20:38;;;;;;;;;;;;;;;20.94;49.59;99905.22;7286740;19;151889;-63
2022/05/24 00:23:06;;;;;;;;;;;;;;;20.96;49.53;99910.50;7286895;19;152702;-61
2022/05/24 00:25:34;;;;;;;;;;;;;;;20.95;49.48;99901.25;7286055;19;153366;-67
2022/05/24 00:28:02;;;;;;;;;;;;;;;20.93;49.60;99903.59;7288608;19;151878;-66
2022/05/24 00:30:29;;;;;;;;;;;;;;;20.91;49.88;99905.88;7287386;19;153623;-63
2022/05/24 00:32:55;;;;;;;;;;;;;;;20.92;50.04;99906.72;7283729;19;154004;-64
2022/05/24 00:35:22;;;;;;;;;;;;;;;20.91;49.95;99908.69;7286830;19;151593;-64
2022/05/24 00:37:49;;;;;;;;;;;;;;;20.97;50.10;99912.97;7293121;19;153315;-60
2022/05/24 00:40:22;;;;;;;;;;;;;;;20.96;49.78;99911.31;7287087;19;152333;-63
2022/05/24 00:42:50;;;;;;;;;;;;;;;20.94;50.03;99908.00;7286321;19;153009;-62
2022/05/24 00:45:20;;;;;;;;;;;;;;;20.96;50.03;99916.13;7283868;19;153698;-60
2022/05/24 00:47:51;;;;;;;;;;;;;;;20.94;50.26;99908.00;7286511;19;151918;-63
2022/05/24 00:50:22;;;;;;;;;;;;;;;20.96;50.60;99911.31;7287416;19;153050;-65
2022/05/24 00:52:52;;;;;;;;;;;;;;;20.95;50.70;99909.66;7284139;19;154576;-65
2022/05/24 00:55:22;;;;;;;;;;;;;;;20.96;50.75;99908.50;7286257;19;151715;-63
2022/05/24 00:57:56;;;;;;;;;;;;;;;20.96;50.77;99919.75;7287749;19;152830;-63
2022/05/24 01:00:24;;;;;;;;;;;;;;;20.94;51.04;99919.25;7290935;19;151652;-61
2022/05/24 01:02:51;;;;;;;;;;;;;;;20.97;51.08;99924.22;7284991;19;153464;-65
2022/05/24 01:05:20;;;;;;;;;;;;;;;20.97;50.97;99920.56;7285451;19;153924;-60
2022/05/24 01:07:50;;;;;;;;;;;;;;;20.98;51.26;99917.44;7284013;19;151782;-62
2022/05/24 01:10:21;;;;;;;;;;;;;;;20.98;50.88;99919.44;7286199;19;153313;-64
2022/05/24 01:12:51;;;;;;;;;;;;;;;20.96;51.14;99916.13;7282104;19;153341;-60
2022/05/24 01:15:19;;;;;;;;;;;;;;;20.94;51.32;99922.06;7286384;19;151559;-64
2022/05/24 01:17:47;;;;;;;;;;;;;;;20.95;51.36;99920.06;7284436;19;153612;-64
2022/05/24 01:20:14;;;;;;;;;;;;;;;20.95;51.49;99920.06;7292529;19;154060;-65
2022/05/24 01:22:45;;;;;;;;;;;;;;;20.96;51.12;99913.31;7285988;19;152770;-60
2022/05/24 01:25:15;;;;;;;;;;;;;;;20.96;51.48;99921.72;7285978;19;153339;-61
2022/05/24 01:27:42;;;;;;;;;;;;;;;20.98;51.46;99920.25;7282766;19;152146;-65
2022/05/24 01:30:11;;;;;;;;;;;;;;;20.97;51.80;99924.22;7285772;19;153223;-63
2022/05/24 01:37:39;;;;;;;;;;;;;;;20.94;51.71;99921.25;7285617;19;153146;-62
2022/05/24 01:40:07;;;;;;;;;;;;;;;20.92;51.53;99921.59;7282597;19;153784;-62
2022/05/24 01:42:35;;;;;;;;;;;;;;;20.91;51.66;99924.72;7292711;19;152638;-61
2022/05/24 01:45:05;;;;;;;;;;;;;;;20.90;51.75;99923.88;7283777;19;153309;-62
2022/05/24 01:47:33;;;;;;;;;;;;;;;20.90;51.68;99923.06;7282177;19;151851;-64
2022/05/24 01:50:03;;;;;;;;;;;;;;;20.95;51.79;99931.31;7285414;19;152735;-61
2022/05/24 01:52:33;;;;;;;;;;;;;;;20.94;51.45;99929.69;7282386;19;152592;-62
2022/05/24 01:55:03;;;;;;;;;;;;;;;20.93;51.92;99928.84;7284873;19;151417;-62
2022/05/24 01:57:33;;;;;;;;;;;;;;;20.95;51.51;99931.31;7282408;19;153209;-59
2022/05/24 02:00:03;;;;;;;;;;;;;;;20.92;51.71;99932.81;7280366;19;154040;-62
2022/05/24 02:02:30;;;;;;;;;;;;;;;20.92;52.04;99934.78;7283425;19;151868;-64
2022/05/24 02:04:57;;;;;;;;;;;;;;;20.91;51.65;99930.34;7289060;19;153302;-61
2022/05/24 02:07:25;;;;;;;;;;;;;;;20.90;51.95;99937.94;7284162;19;151705;-61
2022/05/24 02:09:54;;;;;;;;;;;;;;;20.91;51.68;99933.16;7282961;19;152597;-61
2022/05/24 02:12:24;;;;;;;;;;;;;;;20.93;51.70;99940.09;7283726;19;154457;-63
2022/05/24 02:14:53;;;;;;;;;;;;;;;20.91;51.85;99936.78;7279803;19;151979;-62
2022/05/24 02:17:23;;;;;;;;;;;;;;;20.89;52.24;99946.72;7283241;19;153154;-62
2022/05/24 02:19:51;;;;;;;;;;;;;;;20.90;52.42;99948.34;7283007;19;154338;-63
2022/05/24 02:22:21;;;;;;;;;;;;;;;20.90;52.34;99939.91;7282590;19;151465;-59
2022/05/24 02:24:52;;;;;;;;;;;;;;;20.90;52.23;99945.53;7282618;19;153922;-61
2022/05/24 02:27:18;;;;;;;;;;;;;;;20.89;52.60;99943.91;7291159;19;153909;-63
2022/05/24 02:29:45;;;;;;;;;;;;;;;20.90;52.29;99951.97;7283731;19;153353;-60
2022/05/24 02:32:12;;;;;;;;;;;;;;;20.97;52.13;99954.28;7279765;19;153976;-61
2022/05/24 02:34:39;;;;;;;;;;;;;;;20.95;52.46;99954.59;7281137;19;152075;-60
2022/05/24 02:37:07;;;;;;;;;;;;;;;20.99;52.42;99951.94;7283615;19;153818;-61
2022/05/24 02:41:28;;;;;;;;;;;;;;;20.99;52.63;99957.56;7282124;19;152447;-64
2022/05/24 02:42:21;;;;;;;;;;;;;;;20.96;52.83;99955.44;7282283;19;151833;-67
2022/05/24 02:44:48;;;;;;;;;;;;;;;20.93;52.79;99956.94;7289377;19;152997;-62
2022/05/24 02:47:16;;;;;;;;;;;;;;;20.91;52.86;99956.44;7286014;19;153398;-67
2022/05/24 02:49:43;;;;;;;;;;;;;;;20.92;52.67;99966.50;7298070;19;151650;-61
2022/05/24 02:52:10;;;;;;;;;;;;;;;20.92;52.96;99966.50;7285570;19;153911;-66
2022/05/24 02:54:37;;;;;;;;;;;;;;;20.96;52.61;99967.50;7286641;19;152347;-62
2022/05/24 02:57:05;;;;;;;;;;;;;;;20.93;52.75;99962.56;7288103;19;152666;-61
2022/05/24 02:59:33;;;;;;;;;;;;;;;20.91;52.53;99970.47;7286210;19;153928;-63
2022/05/24 03:02:06;;;;;;;;;;;;;;;20.92;52.15;99972.13;7287485;19;151580;-62
2022/05/24 03:04:34;;;;;;;;;;;;;;;20.91;52.64;99975.25;7287474;19;152494;-65
2022/05/24 03:14:33;;;;;;;;;;;;;;;20.86;52.74;99963.06;7287705;19;151736;-61
2022/05/24 03:17:00;;;;;;;;;;;;;;;20.88;52.63;99964.72;7289723;19;152715;-64
2022/05/24 03:19:27;;;;;;;;;;;;;;;20.89;52.39;99972.81;7288491;19;153412;-65
2022/05/24 03:21:55;;;;;;;;;;;;;;;20.86;52.17;99970.66;7289373;19;151879;-62
2022/05/24 03:24:22;;;;;;;;;;;;;;;20.85;52.47;99969.00;7287732;19;153490;-63
2022/05/24 03:26:49;;;;;;;;;;;;;;;20.87;52.48;99969.50;7287700;19;152662;-63
2022/05/24 03:29:15;;;;;;;;;;;;;;;20.84;52.55;99973.81;7289289;19;151778;-62
2022/05/24 03:31:42;;;;;;;;;;;;;;;20.85;52.59;99974.59;7294109;19;153225;-66
2022/05/24 03:34:10;;;;;;;;;;;;;;;20.83;52.54;99974.97;7288011;19;152078;-63
2022/05/24 03:36:36;;;;;;;;;;;;;;;20.84;52.81;99981.41;7288358;19;153394;-65
2022/05/24 03:39:05;;;;;;;;;;;;;;;20.84;52.73;99995.44;7285258;19;154435;-66
2022/05/24 03:41:32;;;;;;;;;;;;;;;20.83;52.92;99999.41;7288596;19;151921;-63
2022/05/24 03:43:59;;;;;;;;;;;;;;;20.86;52.77;99993.09;7288573;19;153032;-64
2022/05/24 03:46:26;;;;;;;;;;;;;;;20.85;52.50;99999.88;7285454;19;153161;-67
2022/05/24 03:48:53;;;;;;;;;;;;;;;20.86;52.39;100005.16;7288319;19;151683;-62
2022/05/24 03:51:20;;;;;;;;;;;;;;;20.84;52.81;99993.47;7285971;19;153885;-63
2022/05/24 03:53:48;;;;;;;;;;;;;;;20.84;53.05;100004.69;7292865;19;153718;-63
2022/05/24 03:56:14;;;;;;;;;;;;;;;20.82;52.82;100007.00;7286410;19;153948;-65
2022/05/24 03:58:41;;;;;;;;;;;;;;;20.81;53.08;100001.69;7285983;19;154349;-63
2022/05/24 04:01:10;;;;;;;;;;;;;;;20.81;53.49;100007.31;7283866;19;152204;-66
2022/05/24 04:03:38;;;;;;;;;;;;;;;20.83;53.20;100008.66;7287943;19;153063;-60
2022/05/24 04:06:05;;;;;;;;;;;;;;;20.81;53.43;100010.97;7284219;19;154429;-58
2022/05/24 04:08:32;;;;;;;;;;;;;;;20.82;53.55;100011.78;7288494;19;151896;-66
2022/05/24 04:11:00;;;;;;;;;;;;;;;20.79;53.32;100013.28;7285019;19;151507;-62
2022/05/24 04:13:28;;;;;;;;;;;;;;;20.76;53.60;100010.31;7284619;19;154097;-64
2022/05/24 04:15:54;;;;;;;;;;;;;;;20.76;53.75;100013.94;7295377;19;151687;-63
2022/05/24 04:18:21;;;;;;;;;;;;;;;20.77;53.92;100014.75;7285192;19;153593;-64
2022/05/24 04:20:49;;;;;;;;;;;;;;;20.75;54.00;100015.13;7285703;19;152601;-67
2022/05/24 04:23:17;;;;;;;;;;;;;;;20.76;53.72;100019.53;7285462;19;152667;-60
2022/05/24 04:25:44;;;;;;;;;;;;;;;20.75;54.10;100017.91;7285571;19;154256;-65
2022/05/24 04:28:11;;;;;;;;;;;;;;;20.75;54.05;100020.72;7286974;19;151547;-58
2022/05/24 04:30:38;;;;;;;;;;;;;;;20.74;54.11;100016.25;7286551;19;153729;-62
2022/05/24 04:33:05;;;;;;;;;;;;;;;20.77;53.81;100023.19;7285586;19;154037;-63
2022/05/24 04:35:32;;;;;;;;;;;;;;;20.75;53.61;100023.53;7284520;19;151750;-59
2022/05/24 04:38:00;;;;;;;;;;;;;;;20.75;54.14;100025.53;7293826;19;153175;-61
2022/05/24 04:42:58;;;;;;;;;;;;;;;20.74;53.70;100024.69;7287731;19;152778;-66
2022/05/24 04:45:25;;;;;;;;;;;;;;;20.75;53.75;100031.97;7285296;19;153460;-60
2022/05/24 04:47:52;;;;;;;;;;;;;;;20.77;53.79;100031.59;7286634;19;151805;-61
2022/05/24 04:50:19;;;;;;;;;;;;;;;20.78;53.85;100036.06;7286483;19;153197;-62
2022/05/24 04:52:46;;;;;;;;;;;;;;;20.75;54.13;100037.56;7286123;19;154179;-64
2022/05/24 04:55:14;;;;;;;;;;;;;;;20.76;53.91;100044.81;7283903;19;152039;-63
2022/05/24 04:57:41;;;;;;;;;;;;;;;20.75;53.75;100037.56;7285932;19;153384;-62
2022/05/24 05:00:13;;;;;;;;;;;;;;;20.74;53.70;100049.94;7291412;19;153918;-62
2022/05/24 05:02:41;;;;;;;;;;;;;;;20.75;54.04;100050.78;7285695;19;153237;-62
2022/05/24 05:05:09;;;;;;;;;;;;;;;20.71;54.13;100036.59;7284713;19;154069;-62
2022/05/24 05:07:36;;;;;;;;;;;;;;;20.73;53.92;100047.47;7283578;19;151900;-63
2022/05/24 05:10:03;;;;;;;;;;;;;;;20.72;54.09;100051.44;7286171;19;153481;-64
2022/05/24 05:12:30;;;;;;;;;;;;;;;20.70;53.86;100060.19;7285259;19;153429;-66
2022/05/24 05:14:57;;;;;;;;;;;;;;;20.70;53.72;100060.19;7283809;19;151943;-60
2022/05/24 05:17:24;;;;;;;;;;;;;;;20.72;53.55;100062.66;7286319;19;152646;-65
2022/05/24 05:19:51;;;;;;;;;;;;;;;20.71;53.96;100066.63;7291304;19;153741;-60
2022/05/24 05:22:20;;;;;;;;;;;;;;;20.72;53.59;100065.47;7286059;19;153469;-61
2022/05/24 05:24:48;;;;;;;;;;;;;;;20.72;53.55;100068.28;7282935;19;153092;-65
2022/05/24 05:27:16;;;;;;;;;;;;;;;20.69;53.96;100074.56;7286502;19;151813;-64
2022/05/24 05:32:19;;;;;;;;;;;;;;;20.71;53.64;100078.69;7283948;19;153741;-60
2022/05/24 05:34:47;;;;;;;;;;;;;;;20.74;53.59;100077.19;7282834;19;151795;-63
2022/05/24 05:37:15;;;;;;;;;;;;;;;20.78;53.74;100083.81;7285430;19;153218;-61
2022/05/24 05:39:42;;;;;;;;;;;;;;;20.80;53.72;100087.91;7283956;19;153991;-66
2022/05/24 05:42:09;;;;;;;;;;;;;;;20.86;54.47;100097.00;7292272;19;151829;-63
2022/05/24 05:44:36;;;;;;;;;;;;;;;20.92;54.08;100094.84;7281460;19;153227;-63
2022/05/24 05:47:04;;;;;;;;;;;;;;;20.97;54.39;100094.69;7285334;19;152241;-61
2022/05/24 05:49:31;;;;;;;;;;;;;;;21.05;54.57;100102.28;7283394;19;152795;-64
2022/05/24 05:51:58;;;;;;;;;;;;;;;21.09;54.59;100100.44;7282938;19;153749;-64
2022/05/24 05:54:25;;;;;;;;;;;;;;;21.16;54.80;100098.81;7283663;19;151688;-66
2022/05/24 05:56:52;;;;;;;;;;;;;;;21.24;54.70;100106.41;7281984;19;153447;-66
2022/05/24 05:59:19;;;;;;;;;;;;;;;21.32;55.08;100104.72;7282761;19;153254;-61
2022/05/24 06:01:46;;;;;;;;;;;;;;;21.41;54.88;100111.16;7284088;19;151681;-65
2022/05/24 06:04:13;;;;;;;;;;;;;;;21.49;54.78;100106.66;7290953;19;153201;-61
2022/05/24 06:06:41;;;;;;;;;;;;;;;21.56;54.62;100115.41;7284211;19;152337;-64
2022/05/24 06:09:09;;;;;;;;;;;;;;;21.62;54.52;100114.09;7281498;19;153485;-59
2022/05/24 06:11:36;;;;;;;;;;;;;;;21.68;54.05;100119.16;7283356;19;153220;-66
2022/05/24 06:14:03;;;;;;;;;;;;;;;21.77;53.75;100119.13;7281501;19;151831;-68
2022/05/24 06:16:32;;;;;;;;;;;;;;;21.84;54.10;100125.06;7284531;19;152947;-66
2022/05/24 06:18:59;;;;;;;;;;;;;;;21.93;53.62;100125.88;7285652;19;152029;-62
2022/05/24 06:21:26;;;;;;;;;;;;;;;22.03;52.84;100119.84;7290949;19;151744;-61
2022/05/24 06:23:53;;;;;;;;;;;;;;;22.07;52.57;100132.13;7291572;19;155115;-65
2022/05/24 06:26:21;;;;;;;;;;;;;;;22.13;51.92;100132.72;7297196;19;153224;-65
2022/05/24 06:28:48;;;;;;;;;;;;;;;22.17;51.95;100136.50;7288893;19;153690;-61
2022/05/24 06:31:15;;;;;;;;;;;;;;;22.26;51.16;100139.28;7288907;19;153905;-65
2022/05/24 06:33:43;;;;;;;;;;;;;;;22.02;46.99;100137.94;7290298;19;151893;-64
2022/05/24 06:36:10;;;;;;;;;;;;;;;21.93;47.36;100147.56;7288581;19;153557;-65
2022/05/24 06:38:38;;;;;;;;;;;;;;;21.99;48.02;100154.63;7285648;19;153332;-65
2022/05/24 06:41:05;;;;;;;;;;;;;;;22.04;48.20;100157.25;7289548;19;151789;-61
2022/05/24 06:43:33;;;;;;;;;;;;;;;22.04;48.11;100162.88;7290688;19;153375;-65
2022/05/24 06:46:04;;;;;;;;;;;;;;;21.89;48.09;100157.81;7286150;19;153306;-63
2022/05/24 06:48:31;;;;;;;;;;;;;;;21.95;47.67;100154.50;7298808;19;152185;-65
2022/05/24 06:50:59;;;;;;;;;;;;;;;21.97;47.48;100162.59;7288684;19;153229;-62
2022/05/24 06:53:25;;;;;;;;;;;;;;;22.00;47.91;100164.72;7290148;19;152155;-63
2022/05/24 06:55:52;;;;;;;;;;;;;;;22.00;47.57;100173.16;7286549;19;152653;-67
2022/05/24 06:58:20;;;;;;;;;;;;;;;22.00;47.73;100182.44;7287380;19;154097;-63
2022/05/24 07:03:18;;;;;;;;;;;;;;;22.01;47.70;100172.84;7289709;19;152605;-64
2022/05/24 07:05:46;;;;;;;;;;;;;;;21.99;47.96;100177.13;7288049;19;154274;-62
2022/05/24 07:08:13;;;;;;;;;;;;;;;21.99;47.71;100186.41;7290326;19;151921;-64
2022/05/24 07:10:40;;;;;;;;;;;;;;;21.99;47.50;100188.38;7293374;19;152743;-63
2022/05/24 07:13:09;;;;;;;;;;;;;;;21.99;47.85;100194.84;7289967;19;151583;-63
2022/05/24 07:15:37;;;;;;;;;;;;;;;22.00;47.84;100199.31;7285807;19;152637;-64
2022/05/24 07:18:04;;;;;;;;;;;;;;;21.99;47.65;100203.28;7286667;19;154084;-64
2022/05/24 07:20:33;;;;;;;;;;;;;;;21.97;47.77;100207.59;7286614;19;151759;-65
2022/05/24 07:23:03;;;;;;;;;;;;;;;22.01;47.84;100206.59;7287959;19;153394;-60
2022/05/24 07:25:30;;;;;;;;;;;;;;;22.04;48.03;100210.72;7282163;19;153055;-61
2022/05/24 07:27:57;;;;;;;;;;;;;;;22.03;48.20;100215.50;7288433;19;152092;-61
2022/05/24 07:30:24;;;;;;;;;;;;;;;22.05;48.39;100206.75;7294937;19;153125;-63
2022/05/24 07:32:51;;;;;;;;;;;;;;;22.06;47.91;100214.03;7287612;19;152659;-63
2022/05/24 07:35:18;;;;;;;;;;;;;;;22.00;47.98;100209.72;7289083;19;152525;-65
2022/05/24 07:37:45;;;;;;;;;;;;;;;21.99;47.90;100213.69;7286031;19;154364;-64
2022/05/24 07:47:44;;;;;;;;;;;;;;;21.91;47.72;100235.03;7286871;19;151797;-62
2022/05/24 07:50:12;;;;;;;;;;;;;;;21.91;47.77;100234.22;7289335;19;152684;-62
2022/05/24 07:52:39;;;;;;;;;;;;;;;21.97;48.03;100239.38;7292554;19;154322;-66
2022/05/24 07:55:06;;;;;;;;;;;;;;;22.00;48.14;100246.31;7284834;19;152702;-60
2022/05/24 07:57:33;;;;;;;;;;;;;;;21.95;48.18;100236.06;7285522;19;154116;-64
2022/05/24 08:00:04;;;;;;;;;;;;;;;21.92;48.07;100244.31;7287859;19;151945;-59
2022/05/24 08:02:30;;;;;;;;;;;;;;;21.89;47.49;100242.19;7286855;19;153857;-62
2022/05/24 08:04:57;;;;;;;;;;;;;;;21.87;47.54;100252.94;7284062;19;153716;-64
2022/05/24 08:07:24;;;;;;;;;;;;;;;21.85;47.78;100244.81;7286443;19;151738;-62
2022/05/24 08:09:52;;;;;;;;;;;;;;;21.85;47.94;100246.81;7287203;19;152626;-63
2022/05/24 08:12:19;;;;;;;;;;;;;;;21.84;47.98;100243.19;7284999;19;153445;-62
2022/05/24 08:14:46;;;;;;;;;;;;;;;21.83;47.65;100249.13;7294513;19;151788;-61
2022/05/24 08:17:14;;;;;;;;;;;;;;;21.82;48.02;100248.31;7282367;19;154027;-65
2022/05/24 08:19:41;;;;;;;;;;;;;;;21.80;48.03;100256.28;7285987;19;151816;-65
2022/05/24 08:22:08;;;;;;;;;;;;;;;21.80;47.88;100245.03;7287773;19;152697;-63
2022/05/24 08:24:35;;;;;;;;;;;;;;;21.79;47.62;100248.97;7283564;19;153131;-62
2022/05/24 08:27:02;;;;;;;;;;;;;;;21.78;47.94;100252.13;7285352;19;151869;-62
2022/05/24 08:29:29;;;;;;;;;;;;;;;21.78;47.98;100252.13;7285056;19;152783;-63
2022/05/24 08:31:56;;;;;;;;;;;;;;;21.79;47.68;100263.03;7284319;19;154287;-62
2022/05/24 08:34:24;;;;;;;;;;;;;;;21.76;47.77;100266.50;7285449;19;152020;-62
2022/05/24 08:36:51;;;;;;;;;;;;;;;21.76;47.87;100266.50;7291256;19;153518;-63
2022/05/24 08:39:18;;;;;;;;;;;;;;;21.73;47.97;100264.38;7285423;19;151845;-63
2022/05/24 08:41:48;;;;;;;;;;;;;;;21.74;48.12;100274.47;7285686;19;153433;-64
2022/05/24 08:49:17;;;;;;;;;;;;;;;21.70;48.06;100276.28;7286436;19;153922;-64
2022/05/24 08:51:47;;;;;;;;;;;;;;;21.69;48.06;100286.72;7285920;19;154207;-63
2022/05/24 08:54:18;;;;;;;;;;;;;;;21.67;47.71;100286.19;7286170;19;151603;-62
2022/05/24 08:56:48;;;;;;;;;;;;;;;21.67;47.69;100283.38;7283087;19;152648;-60
2022/05/24 08:59:15;;;;;;;;;;;;;;;21.66;47.85;100280.94;7292680;19;154170;-60
2022/05/24 09:01:43;;;;;;;;;;;;;;;21.67;47.76;100285.38;7285831;19;153158;-64
2022/05/24 09:04:10;;;;;;;;;;;;;;;21.65;47.78;100284.91;7285217;19;152428;-63
2022/05/24 09:06:46;;;;;;;;;;;;;;;21.64;47.73;100286.03;7286640;19;151780;-63
2022/05/24 09:09:14;;;;;;;;;;;;;;;21.60;48.03;100285.88;7286002;19;152959;-63
2022/05/24 09:11:45;;;;;;;;;;;;;;;21.59;47.97;100297.47;7285496;19;153867;-59
2022/05/24 09:14:22;;;;;;;;;;;;;;;21.59;47.71;100300.25;7285727;19;151825;-65
2022/05/24 09:16:52;;;;;;;;;;;;;;;21.57;47.93;100294.16;7284055;19;154011;-63
2022/05/24 09:19:25;;;;;;;;;;;;;;;21.57;47.87;100302.59;7285305;19;154296;-61
2022/05/24 09:21:53;;;;;;;;;;;;;;;21.56;48.09;100298.97;7292364;19;151889;-59
2022/05/24 09:24:25;;;;;;;;;;;;;;;21.55;47.89;100308.53;7283967;19;154066;-64
2022/05/24 09:26:55;;;;;;;;;;;;;;;21.57;47.85;100311.03;7284777;19;151920;-61
2022/05/24 09:29:22;;;;;;;;;;;;;;;21.57;47.68;100303.44;7286696;19;152708;-63
2022/05/24 09:31:49;;;;;;;;;;;;;;;21.58;47.74;100304.22;7283182;19;153455;-63
2022/05/24 09:34:18;;;;;;;;;;;;;;;21.56;47.42;100310.19;7283796;19;151723;-62
2022/05/24 09:36:48;;;;;;;;;;;;;;;21.56;47.41;100307.41;7282749;19;153178;-63
2022/05/24 09:39:18;;;;;;;;;;;;;;;21.56;47.79;100298.97;7284082;19;153415;-65
2022/05/24 09:41:48;;;;;;;;;;;;;;;21.59;47.56;100300.25;7292880;19;151638;-64
2022/05/24 09:44:17;;;;;;;;;;;;;;;21.59;47.64;100301.09;7284559;19;153758;-64
2022/05/24 09:46:44;;;;;;;;;;;;;;;21.58;47.54;100304.22;7284682;19;151914;-63
2022/05/24 09:49:15;;;;;;;;;;;;;;;21.55;47.70;100299.28;7283399;19;154740;-60
2022/05/24 09:51:42;;;;;;;;;;;;;;;21.53;47.55;100304.41;7284284;19;153691;-62
2022/05/24 09:54:13;;;;;;;;;;;;;;;21.52;47.47;100311.19;7287359;19;151790;-64
2022/05/24 09:56:47;;;;;;;;;;;;;;;21.58;47.36;100313.50;7290581;19;152778;-63
2022/05/24 09:59:17;;;;;;;;;;;;;;;21.63;47.06;100307.72;7290811;19;154025;-64
2022/05/24 10:01:46;;;;;;;;;;;;;;;21.66;47.18;100306.22;7291323;19;152005;-61
2022/05/24 10:04:16;;;;;;;;;;;;;;;21.69;46.64;100311.19;7295510;19;152920;-60
2022/05/24 10:06:51;;;;;;;;;;;;;;;21.69;46.57;100317.63;7291460;19;151642;-63
2022/05/24 10:09:18;;;;;;;;;;;;;;;21.72;46.56;100313.31;7291046;19;152817;-61
2022/05/24 10:11:48;;;;;;;;;;;;;;;21.70;46.35;100307.22;7288672;19;153725;-63
2022/05/24 10:14:18;;;;;;;;;;;;;;;21.64;46.45;100315.00;7290977;19;151684;-62
2022/05/24 10:16:49;;;;;;;;;;;;;;;21.67;46.51;100311.50;7289909;19;153171;-61
2022/05/24 10:19:19;;;;;;;;;;;;;;;21.70;46.37;100324.91;7290085;19;154436;-61
2022/05/24 10:21:49;;;;;;;;;;;;;;;21.63;46.30;100313.34;7289973;19;152006;-64
2022/05/24 10:24:16;;;;;;;;;;;;;;;21.68;45.76;100315.16;7291158;19;152669;-61
2022/05/24 10:26:47;;;;;;;;;;;;;;;21.62;46.28;100317.28;7294569;19;154128;-60
2022/05/24 10:29:16;;;;;;;;;;;;;;;21.59;46.19;100326.41;7288631;19;153318;-62
2022/05/24 10:31:45;;;;;;;;;;;;;;;21.59;46.11;100326.41;7289808;19;153270;-59
2022/05/24 10:39:24;;;;;;;;;;;;;;;21.52;46.08;100328.06;7289016;19;153158;-61
2022/05/24 10:41:54;;;;;;;;;;;;;;;21.50;45.83;100331.19;7290437;19;151879;-64
2022/05/24 10:44:25;;;;;;;;;;;;;;;21.48;46.03;100339.16;7288688;19;152730;-62
2022/05/24 10:46:55;;;;;;;;;;;;;;;21.48;45.97;100341.13;7289015;19;154138;-64
2022/05/24 10:49:26;;;;;;;;;;;;;;;21.46;46.04;100341.44;7297673;19;151932;-63
2022/05/24 10:51:56;;;;;;;;;;;;;;;21.48;45.96;100333.53;7289482;19;153415;-64
2022/05/24 10:54:26;;;;;;;;;;;;;;;21.45;45.61;100339.78;7289429;19;152151;-65
2022/05/24 10:56:55;;;;;;;;;;;;;;;21.43;45.96;100338.47;7287225;19;152806;-62
2022/05/24 10:59:23;;;;;;;;;;;;;;;21.43;45.88;100336.50;7286329;19;154686;-64
2022/05/24 11:01:55;;;;;;;;;;;;;;;21.49;45.90;100335.16;7289201;19;151747;-65
2022/05/24 11:04:26;;;;;;;;;;;;;;;21.50;45.35;100345.25;7287794;19;153524;-63
2022/05/24 11:06:59;;;;;;;;;;;;;;;21.45;45.78;100353.00;7288999;19;154040;-61
2022/05/24 11:09:27;;;;;;;;;;;;;;;21.40;45.34;100347.53;7287318;19;151571;-64
2022/05/24 11:11:58;;;;;;;;;;;;;;;21.38;45.57;100358.31;7294071;19;151798;-59
2022/05/24 11:14:28;;;;;;;;;;;;;;;21.33;45.53;100348.03;7286843;19;151979;-60
2022/05/24 11:16:56;;;;;;;;;;;;;;;21.33;45.76;100352.84;7288371;19;153282;-61
2022/05/24 11:19:26;;;;;;;;;;;;;;;21.31;45.78;100361.59;7285957;19;154061;-62
2022/05/24 11:22:04;;;;;;;;;;;;;;;21.34;45.15;100351.69;7288869;19;151554;-63
2022/05/24 11:24:34;;;;;;;;;;;;;;;21.32;45.16;100365.22;7287293;19;153096;-64
2022/05/24 11:27:02;;;;;;;;;;;;;;;21.34;45.38;100362.94;7286108;19;153222;-62
2022/05/24 11:29:43;;;;;;;;;;;;;;;21.37;45.37;100365.06;7286719;19;152086;-63
2022/05/24 11:32:11;;;;;;;;;;;;;;;21.32;45.36;100371.69;7287089;19;153707;-62
2022/05/24 11:34:41;;;;;;;;;;;;;;;21.30;45.40;100379.63;7292552;19;151582;-60
2022/05/24 11:37:13;;;;;;;;;;;;;;;21.28;45.93;100387.53;7288169;19;153383;-61
2022/05/24 11:39:42;;;;;;;;;;;;;;;21.24;46.11;100415.47;7285584;19;153675;-64
2022/05/24 11:42:13;;;;;;;;;;;;;;;21.23;45.94;100432.63;7288467;19;151728;-60
2022/05/24 11:44:39;;;;;;;;;;;;;;;21.20;46.15;100436.13;7286746;19;153473;-61
2022/05/24 11:47:07;;;;;;;;;;;;;;;21.17;45.86;100442.34;7284806;19;152568;-62
2022/05/24 11:49:40;;;;;;;;;;;;;;;21.14;46.34;100443.03;7288191;19;151461;-64
2022/05/24 11:52:27;;;;;;;;;;;;;;;21.12;46.57;100450.94;7286298;19;152766;-62
2022/05/24 11:54:54;;;;;;;;;;;;;;;21.11;46.65;100438.03;7292954;19;154163;-60
2022/05/24 11:57:25;;;;;;;;;;;;;;;21.08;46.96;100425.44;7286384;19;152763;-60
2022/05/24 11:59:52;;;;;;;;;;;;;;;21.06;46.88;100424.97;7284499;19;153459;-59
2022/05/24 12:09:55;;;;;;;;;;;;;;;21.18;46.57;100435.59;7288192;19;151791;-61
2022/05/24 12:12:29;;;;;;;;;;;;;;;21.18;46.72;100446.84;7287362;19;152815;-60
2022/05/24 12:14:59;;;;;;;;;;;;;;;21.19;47.12;100438.09;7283784;19;154080;-62
2022/05/24 12:17:27;;;;;;;;;;;;;;;21.21;47.00;100427.34;7293065;19;151821;-62
2022/05/24 12:19:54;;;;;;;;;;;;;;;21.23;47.00;100432.63;7285469;19;152877;-62
2022/05/24 12:22:27;;;;;;;;;;;;;;;21.23;47.10;100435.44;7287895;19;151873;-62
2022/05/24 12:24:57;;;;;;;;;;;;;;;21.23;47.06;100427.03;7286199;19;153464;-62
2022/05/24 12:27:27;;;;;;;;;;;;;;;21.26;47.26;100426.34;7285161;19;153388;-60
2022/05/24 12:29:57;;;;;;;;;;;;;;;21.24;46.91;100423.06;7287494;19;151649;-63
2022/05/24 12:32:25;;;;;;;;;;;;;;;21.26;47.38;100429.16;7287122;19;152682;-59
2022/05/24 12:34:53;;;;;;;;;;;;;;;21.27;47.03;100423.22;7285014;19;154050;-62
2022/05/24 12:37:20;;;;;;;;;;;;;;;21.28;47.00;100424.06;7285031;19;151919;-60
2022/05/24 12:39:50;;;;;;;;;;;;;;;21.27;47.26;100419.59;7294012;19;152799;-64
2022/05/24 12:42:17;;;;;;;;;;;;;;;21.25;47.01;100410.69;7286691;19;151426;-65
2022/05/24 12:44:48;;;;;;;;;;;;;;;21.21;47.03;100404.88;7287565;19;153950;-61
2022/05/24 12:47:20;;;;;;;;;;;;;;;21.19;46.98;100411.97;7285456;19;154113;-64
2022/05/24 12:49:48;;;;;;;;;;;;;;;21.16;46.98;100427.50;7284978;19;151825;-65
2022/05/24 12:52:22;;;;;;;;;;;;;;;21.13;47.04;100425.34;7286539;19;153817;-61
2022/05/24 12:54:51;;;;;;;;;;;;;;;21.12;47.16;100425.66;7286021;19;153735;-61
2022/05/24 12:57:21;;;;;;;;;;;;;;;21.11;47.30;100436.06;7285694;19;152069;-63
2022/05/24 12:59:51;;;;;;;;;;;;;;;21.12;48.15;100437.69;7282848;19;153890;-59
2022/05/24 13:02:21;;;;;;;;;;;;;;;21.24;47.79;100439.94;7291068;19;152988;-63
2022/05/24 13:04:49;;;;;;;;;;;;;;;21.18;47.76;100439.25;7285819;19;152699;-64
2022/05/24 13:07:35;;;;;;;;;;;;;;;21.20;48.26;100436.13;7285787;19;153350;-60
2022/05/24 13:10:04;;;;;;;;;;;;;;;21.19;48.25;100429.66;7285116;19;151625;-61
2022/05/24 13:12:31;;;;;;;;;;;;;;;21.20;48.02;100444.53;7286565;19;152787;-59
2022/05/24 13:14:59;;;;;;;;;;;;;;;21.18;47.91;100436.44;7283897;19;153236;-63
2022/05/24 13:17:29;;;;;;;;;;;;;;;21.19;48.25;100442.88;7285065;19;151930;-63
2022/05/24 13:19:57;;;;;;;;;;;;;;;21.18;48.28;100444.03;7286509;19;152788;-60
2022/05/24 13:22:38;;;;;;;;;;;;;;;21.18;48.21;100447.66;7283319;19;151955;-63